FQLC

Lichinga Airport

Lichinga, Mozambique
TAF FQLC 202200Z 2100/2200 VRB03KT 9999 SCT015 BECMG 2106/2108 05008KT BECMG 2112/2114 09010KT TX23/2113Z TN12/2103Z
Issued Valid From Valid To
Aug-20 @ 22:00 UTC
(6 hours ago)
Aug-21 @ 00:00 UTC
(4 hours ago)
Aug-22 @ 00:00 UTC
(in 20 hours)
Aug-21 @ 00:00 to Aug-21 @ 06:00
TAF FQLC 202200Z 2100/2200 VRB03KT 9999 SCT015
Wind Visibility Clouds
Variable at 3 knots 10,000+ meters
  • Scattered at 1,500' AGL
Becoming Aug-21 @ 06:00 to Aug-21 @ 12:00
BECMG 2106/2108 05008KT
Wind Visibility Clouds
50° at 8 knots 10,000+ meters
  • Scattered at 1,500' AGL
Becoming Aug-21 @ 12:00 to Aug-22 @ 00:00
BECMG 2112/2114 09010KT TX23/2113Z TN12/2103Z
Wind Visibility Clouds
90° at 10 knots 10,000+ meters
  • Scattered at 1,500' AGL
TAF FQLC 202200Z 2100/2200 VRB03KT 9999 SCT015 BECMG 2106/2108 05008KT BECMG 2112/2114 09010KT TX23/2113Z TN12/2103Z
Issued Aug-20 @ 22:00 UTC
(6 hours ago)
Valid From Aug-21 @ 00:00 UTC
(4 hours ago)
Valid To Aug-22 @ 00:00 UTC
(in 20 hours)
Aug-21 @ 00:00 - Aug-21 @ 06:00
Wind Visibility
Variable at 3 knots 10,000+ meters
Clouds
  • Scattered at 1,500' AGL
Becoming Aug-21 @ 06:00 - Aug-21 @ 12:00
Wind Visibility
50° at 8 knots 10,000+ meters
Clouds
  • Scattered at 1,500' AGL
Becoming Aug-21 @ 12:00 - Aug-22 @ 00:00
Wind Visibility
90° at 10 knots 10,000+ meters
Clouds
  • Scattered at 1,500' AGL